»·PEaware :: SWA1329 KSFO-KLAX

SWA1329 :: KSFO-KLAX

FLIGHT INFORMATION

Flight Status: Arrived
Operator:
Southwest Airlines
More flights by this operator :: More flights under this callsign
Pilot: Ben L. (6391)
Aircraft: BOEING 737-800
(B738)
More flights by this aircraft type
Origin: KSFO San Francisco Intl
United States
Destination: KLAX Los Angeles Intl
United States
More flights between these airports :: More routes between these airports
Route: +SSTIK4 EBAYE BURGL IRNMN2
File this flight plan on PilotEdge
Remarks:
Altitude:
(Current/Filed)
35,000ft
Speed:
(Current/Filed)
455kts
Departed: 20-Mar-20 04:10 PM
Arrived: 20-Mar-20 05:10 PM
Distance/Time
Traveled:
293nm/1:00
Distance/Time
To Go:
Arrived

Flight Plot

Page will automatically refresh every two minutes.

Flight plan parsing failed; only flown route is shown


Map Options




Map Legend


Flown Route
Filed Route
Departure Airport
Arrival Airport
Navaid (VOR, NDB)
Fix

Horizontal Profiles

Position Reports

Time Latitude Longitude Heading Altitude Ground
Speed
20-Mar-20 15:19 37.612239 -122.384137 30 32ft 0kts
20-Mar-20 15:20 37.612239 -122.384137 30 32ft 0kts
20-Mar-20 15:21 37.612239 -122.384137 30 32ft 0kts
20-Mar-20 15:22 37.612239 -122.384137 30 32ft 0kts
20-Mar-20 15:23 37.612239 -122.384138 30 32ft 0kts
20-Mar-20 15:24 37.612239 -122.384138 30 32ft 0kts
20-Mar-20 15:25 37.612239 -122.384138 30 32ft 0kts
20-Mar-20 15:26 37.612239 -122.384138 30 32ft 0kts
20-Mar-20 15:27 37.612239 -122.384138 30 32ft 0kts
20-Mar-20 15:28 37.612239 -122.384138 30 32ft 0kts
20-Mar-20 15:29 37.612239 -122.384138 30 32ft 0kts
20-Mar-20 15:30 37.612239 -122.384138 30 32ft 0kts
20-Mar-20 15:31 37.612239 -122.384138 30 32ft 0kts
20-Mar-20 15:32 37.612239 -122.384138 30 32ft 0kts
20-Mar-20 15:33 37.612239 -122.384138 30 32ft 0kts
20-Mar-20 15:34 37.612239 -122.384138 30 32ft 0kts
20-Mar-20 15:35 37.612239 -122.384138 30 32ft 0kts
20-Mar-20 15:36 37.612239 -122.384138 30 32ft 0kts
20-Mar-20 15:37 37.612239 -122.384138 30 32ft 0kts
20-Mar-20 15:38 37.612239 -122.384138 30 32ft 0kts
20-Mar-20 15:39 37.612239 -122.384138 30 32ft 0kts
20-Mar-20 15:40 37.612239 -122.384138 30 32ft 0kts
20-Mar-20 15:41 37.612239 -122.384138 30 32ft 0kts
20-Mar-20 15:42 37.612239 -122.384138 30 32ft 0kts
20-Mar-20 15:43 37.612239 -122.384138 30 32ft 0kts
20-Mar-20 15:44 37.612239 -122.384138 30 32ft 0kts
20-Mar-20 15:45 37.612239 -122.384138 30 32ft 0kts
20-Mar-20 15:46 37.612239 -122.384138 30 32ft 0kts
20-Mar-20 15:47 37.612238 -122.384138 30 32ft 0kts
20-Mar-20 15:48 37.612238 -122.384138 30 32ft 0kts
20-Mar-20 15:49 37.612238 -122.384138 30 32ft 0kts
20-Mar-20 15:50 37.612238 -122.384138 30 32ft 0kts
20-Mar-20 15:51 37.612238 -122.384138 30 32ft 0kts
20-Mar-20 15:52 37.612238 -122.384138 30 32ft 0kts
20-Mar-20 15:53 37.612238 -122.384138 30 32ft 0kts
20-Mar-20 15:54 37.612238 -122.384138 30 32ft 0kts
20-Mar-20 15:55 37.612238 -122.384138 30 32ft 0kts
20-Mar-20 15:56 37.612238 -122.384138 30 32ft 0kts
20-Mar-20 15:57 37.612238 -122.384138 30 32ft 0kts
20-Mar-20 15:58 37.612238 -122.384138 30 32ft 0kts
20-Mar-20 15:59 37.612238 -122.384138 30 32ft 0kts
20-Mar-20 16:00 37.612238 -122.384138 30 32ft 0kts
20-Mar-20 16:01 37.612238 -122.384138 30 32ft 0kts
20-Mar-20 16:02 37.611789 -122.384497 60 32ft 2kts
20-Mar-20 16:03 37.611802 -122.384878 118 32ft 0kts
20-Mar-20 16:04 37.611802 -122.384877 118 32ft 0kts
20-Mar-20 16:05 37.611482 -122.384148 118 32ft 3kts
20-Mar-20 16:06 37.609407 -122.383435 208 31ft 10kts
20-Mar-20 16:07 37.608752 -122.383830 182 31ft 1kts
20-Mar-20 16:08 37.608618 -122.383796 158 31ft 0kts
20-Mar-20 16:09 37.609655 -122.381800 28 30ft 52kts
20-Mar-20 16:10 37.646802 -122.360060 8 1452ft 186kts
20-Mar-20 16:11 37.704094 -122.375840 303 3412ft 243kts
20-Mar-20 16:12 37.684341 -122.447368 193 6271ft 264kts
20-Mar-20 16:13 37.610224 -122.456592 185 9383ft 276kts
20-Mar-20 16:14 37.532432 -122.467793 181 9996ft 276kts
20-Mar-20 16:15 37.460999 -122.435367 138 10533ft 298kts
20-Mar-20 16:16 37.400317 -122.352832 133 12754ft 332kts
20-Mar-20 16:17 37.335944 -122.265248 134 15406ft 349kts
20-Mar-20 16:18 37.268581 -122.173964 134 17842ft 365kts
20-Mar-20 16:19 37.197706 -122.078136 134 20034ft 382kts
20-Mar-20 16:20 37.123586 -121.978148 134 21986ft 399kts
20-Mar-20 16:21 37.046413 -121.874379 135 23897ft 411kts
20-Mar-20 16:22 36.967229 -121.768279 135 25711ft 420kts
20-Mar-20 16:23 36.888273 -121.662886 136 27155ft 432kts
20-Mar-20 16:24 36.804331 -121.551058 136 28475ft 445kts
20-Mar-20 16:25 36.718346 -121.436900 136 29685ft 456kts
20-Mar-20 16:26 36.630143 -121.320227 136 30854ft 464kts
20-Mar-20 16:27 36.540881 -121.202604 136 31928ft 470kts
20-Mar-20 16:28 36.450231 -121.083626 137 32831ft 475kts
20-Mar-20 16:29 36.361598 -120.960918 135 33765ft 479kts
20-Mar-20 16:30 36.274086 -120.835495 135 34752ft 479kts
20-Mar-20 16:31 36.186595 -120.710289 135 34805ft 478kts
20-Mar-20 16:32 36.100224 -120.587066 135 35027ft 473kts
20-Mar-20 16:33 36.013688 -120.464080 135 35155ft 473kts
20-Mar-20 16:34 35.927336 -120.341789 136 35164ft 471kts
20-Mar-20 16:35 35.828024 -120.238478 150 35155ft 462kts
20-Mar-20 16:36 35.727571 -120.156510 152 35162ft 460kts
20-Mar-20 16:37 35.619779 -120.073486 153 35167ft 460kts
20-Mar-20 16:38 35.511035 -119.990993 153 35156ft 460kts
20-Mar-20 16:39 35.402086 -119.908862 153 35167ft 459kts
20-Mar-20 16:40 35.293667 -119.826411 149 35164ft 458kts
20-Mar-20 16:41 35.191699 -119.732973 147 35157ft 460kts
20-Mar-20 16:42 35.088825 -119.637293 147 33157ft 478kts
20-Mar-20 16:43 34.984012 -119.539669 148 30365ft 460kts
20-Mar-20 16:44 34.895259 -119.457416 151 29180ft 412kts
20-Mar-20 16:45 34.806169 -119.378163 151 27368ft 391kts
20-Mar-20 16:46 34.719689 -119.301553 151 25375ft 372kts
20-Mar-20 16:47 34.637439 -119.230041 151 24196ft 362kts
20-Mar-20 16:48 34.554334 -119.158504 149 22550ft 365kts
20-Mar-20 16:49 34.473148 -119.086538 148 20163ft 357kts
20-Mar-20 16:51 34.394844 -119.018004 147 17476ft 341kts
20-Mar-20 16:52 34.318484 -118.951281 145 15375ft 334kts
20-Mar-20 16:53 34.245027 -118.884310 144 13628ft 328kts
20-Mar-20 16:54 34.172918 -118.817982 143 12114ft 314kts
20-Mar-20 16:55 34.111042 -118.752073 138 11199ft 288kts
20-Mar-20 16:56 34.052510 -118.687098 132 10004ft 276kts
20-Mar-20 16:57 34.023500 -118.602714 98 8686ft 278kts
20-Mar-20 16:58 34.015234 -118.510613 97 7556ft 269kts
20-Mar-20 16:59 34.015895 -118.422637 78 6653ft 258kts
20-Mar-20 17:00 34.028843 -118.344036 82 5995ft 231kts
20-Mar-20 17:01 34.036683 -118.265759 83 5977ft 233kts
20-Mar-20 17:02 34.039921 -118.188349 117 5747ft 232kts
20-Mar-20 17:03 33.992864 -118.155354 185 4809ft 185kts
20-Mar-20 17:04 33.963010 -118.193489 264 3777ft 168kts
20-Mar-20 17:05 33.962958 -118.249480 272 2673ft 168kts
20-Mar-20 17:06 33.962748 -118.304242 265 1573ft 155kts
20-Mar-20 17:07 33.956728 -118.354162 264 799ft 144kts
20-Mar-20 17:08 33.952132 -118.401587 263 148ft 139kts
20-Mar-20 17:08 33.949856 -118.423590 256 114ft 43kts
20-Mar-20 17:10 33.946494 -118.427758 173 114ft 0kts
20-Mar-20 17:11 33.946543 -118.425289 82 114ft 13kts
20-Mar-20 17:11 33.946942 -118.421496 82 114ft 14kts
20-Mar-20 17:12 33.947451 -118.416334 86 114ft 16kts
20-Mar-20 17:13 33.948083 -118.411676 83 114ft 15kts
20-Mar-20 17:15 33.947784 -118.406600 80 114ft 13kts
20-Mar-20 17:15 33.948090 -118.403204 94 114ft 10kts
20-Mar-20 17:16 33.947244 -118.401977 86 114ft 3kts
20-Mar-20 17:17 33.947251 -118.401895 84 114ft 0kts
20-Mar-20 17:18 33.947251 -118.401895 84 114ft 0kts
20-Mar-20 17:19 33.947251 -118.401895 84 114ft 0kts
20-Mar-20 17:20 33.947251 -118.401895 84 114ft 0kts
20-Mar-20 17:21 33.947251 -118.401895 84 114ft 0kts
20-Mar-20 17:22 33.947251 -118.401895 84 114ft 0kts

Navigation Log

Ident Type
Flight plan parsing failed, navigation log unavailable